createdAt,value
2024-03-09T00:00:45.621Z,1.35
2024-03-09T00:05:49.768Z,3.47
2024-03-09T00:10:55.121Z,1.87
2024-03-09T00:16:00.477Z,1.98
2024-03-09T00:21:07.762Z,2.58
2024-03-09T00:26:13.232Z,1.65
2024-03-09T00:31:18.080Z,1.42
2024-03-09T00:41:28.507Z,1.60
2024-03-09T00:46:32.501Z,1.77
2024-03-09T00:51:36.389Z,2.10
2024-03-09T00:56:41.705Z,2.33
2024-03-09T01:01:45.891Z,1.83
2024-03-09T01:06:50.015Z,1.10
2024-03-09T01:11:55.478Z,2.23
2024-03-09T01:17:01.371Z,2.90
2024-03-09T01:22:07.817Z,2.25
2024-03-09T01:27:13.295Z,2.08
2024-03-09T01:32:17.967Z,3.35
2024-03-09T01:37:23.807Z,3.13
2024-03-09T01:42:30.672Z,2.47
2024-03-09T01:47:35.520Z,2.58
2024-03-09T01:52:40.873Z,2.22
2024-03-09T01:57:47.376Z,2.15
2024-03-09T02:02:53.813Z,1.30
2024-03-09T02:07:57.745Z,1.95
2024-03-09T02:13:04.006Z,1.33
2024-03-09T02:18:08.842Z,0.75
2024-03-09T02:28:20.152Z,2.03
2024-03-09T02:33:24.353Z,1.15
2024-03-09T02:38:28.204Z,1.50
2024-03-09T02:43:38.236Z,2.27
2024-03-09T02:48:44.922Z,1.17
2024-03-09T02:53:48.810Z,1.05
2024-03-09T02:58:54.083Z,1.67
2024-03-09T03:04:00.371Z,3.17
2024-03-09T03:09:13.650Z,2.17
2024-03-09T03:14:19.571Z,2.47
2024-03-09T03:19:24.159Z,1.70
2024-03-09T03:24:28.014Z,3.17
2024-03-09T03:29:34.272Z,0.73
2024-03-09T03:34:39.126Z,1.42
2024-03-09T03:44:47.859Z,2.72
2024-03-09T03:49:52.321Z,1.00
2024-03-09T03:54:57.203Z,4.07
2024-03-09T04:05:06.630Z,2.63
2024-03-09T04:10:15.635Z,2.58
2024-03-09T04:15:21.075Z,3.50
2024-03-09T04:20:28.563Z,3.45
2024-03-09T04:25:34.296Z,3.08
2024-03-09T04:30:40.312Z,2.92
2024-03-09T04:35:46.593Z,3.47
2024-03-09T04:40:51.866Z,4.07
2024-03-09T04:45:57.430Z,3.83
2024-03-09T04:51:02.486Z,4.70
2024-03-09T04:56:07.749Z,4.53
2024-03-09T05:01:13.169Z,3.58
2024-03-09T05:06:17.269Z,3.92
2024-03-09T05:11:21.174Z,4.30
2024-03-09T05:16:26.724Z,4.73
2024-03-09T05:21:35.636Z,3.42
2024-03-09T05:26:44.257Z,4.25
2024-03-09T05:31:49.888Z,4.35
2024-03-09T05:36:54.666Z,3.08
2024-03-09T05:41:58.778Z,4.45
2024-03-09T05:47:04.461Z,3.00
2024-03-09T05:52:09.392Z,2.40
2024-03-09T06:02:18.592Z,2.72
2024-03-09T06:07:22.498Z,2.42
2024-03-09T06:12:26.934Z,2.00
2024-03-09T06:17:32.633Z,2.22
2024-03-09T06:22:36.738Z,3.10
2024-03-09T06:27:40.851Z,2.10
2024-03-09T06:32:46.468Z,2.57
2024-03-09T06:37:58.024Z,3.25
2024-03-09T06:43:02.498Z,2.67
2024-03-09T06:53:12.835Z,2.28
2024-03-09T06:58:16.735Z,2.60
2024-03-09T07:03:22.053Z,1.67
2024-03-09T07:08:27.202Z,1.80
2024-03-09T07:13:31.211Z,4.15
2024-03-09T07:18:38.391Z,1.60
2024-03-09T07:23:42.542Z,1.63
2024-03-09T07:28:46.481Z,2.42
2024-03-09T07:33:54.718Z,1.83
2024-03-09T07:38:58.608Z,1.73
2024-03-09T07:44:03.288Z,1.80
2024-03-09T07:49:09.157Z,2.13
2024-03-09T07:54:13.091Z,2.97
2024-03-09T07:59:18.784Z,2.58
2024-03-09T08:04:24.142Z,3.15
2024-03-09T08:09:29.629Z,2.60
2024-03-09T08:14:35.513Z,2.55
2024-03-09T08:19:41.097Z,2.08
2024-03-09T08:24:45.246Z,3.58
2024-03-09T08:29:51.545Z,1.60
2024-03-09T08:34:57.147Z,2.30
2024-03-09T08:40:01.070Z,2.22
2024-03-09T08:45:07.458Z,1.75
2024-03-09T08:50:13.357Z,2.60
2024-03-09T08:55:17.965Z,3.47
2024-03-09T09:00:27.028Z,3.05
2024-03-09T09:05:33.085Z,1.70
2024-03-09T09:10:37.581Z,1.60
2024-03-09T09:15:44.021Z,1.92
2024-03-09T09:20:49.996Z,2.30
2024-03-09T09:25:54.037Z,2.53
2024-03-09T09:30:57.928Z,2.10
2024-03-09T09:36:03.166Z,1.77
2024-03-09T09:41:08.106Z,1.85
2024-03-09T09:51:21.624Z,2.67
2024-03-09T09:56:25.634Z,1.63
2024-03-09T10:01:29.742Z,4.23
2024-03-09T10:06:35.060Z,1.80
2024-03-09T10:11:56.380Z,1.77
2024-03-09T10:17:11.132Z,5.05
2024-03-09T10:22:17.107Z,3.45
2024-03-09T10:27:22.938Z,1.88
2024-03-09T10:32:28.040Z,1.75
2024-03-09T10:37:33.816Z,1.70
2024-03-09T10:42:44.955Z,2.00
2024-03-09T10:47:54.538Z,1.67
2024-03-09T10:53:20.734Z,1.58
2024-03-09T10:58:27.741Z,3.35
2024-03-09T11:03:33.889Z,2.28
2024-03-09T11:08:39.963Z,1.88
2024-03-09T11:13:45.896Z,3.20
2024-03-09T11:18:58.004Z,1.30
2024-03-09T11:24:09.799Z,1.73
2024-03-09T11:29:14.043Z,2.13
2024-03-09T11:34:22.939Z,2.17
2024-03-09T11:39:31.288Z,2.10
2024-03-09T11:44:35.516Z,3.75
2024-03-09T11:49:42.078Z,3.30
2024-03-09T11:54:51.148Z,2.63
2024-03-09T11:59:55.534Z,3.03
2024-03-09T12:04:59.553Z,2.70
2024-03-09T12:10:05.670Z,3.47
2024-03-09T12:15:11.197Z,4.00
2024-03-09T12:20:15.819Z,2.65
2024-03-09T12:30:25.688Z,1.42
2024-03-09T12:35:30.415Z,2.90
2024-03-09T12:40:35.821Z,1.50
2024-03-09T12:45:41.021Z,2.75
2024-03-09T12:50:44.928Z,3.05
2024-03-09T12:55:52.369Z,3.03
2024-03-09T13:01:13.365Z,2.15
2024-03-09T13:06:17.285Z,2.92
2024-03-09T13:11:23.298Z,2.33
2024-03-09T13:16:27.319Z,1.75
2024-03-09T13:21:31.446Z,1.53
2024-03-09T13:26:36.720Z,2.70
2024-03-09T13:31:40.669Z,3.38
2024-03-09T13:36:44.820Z,2.70
2024-03-09T13:41:50.482Z,2.03
2024-03-09T13:46:54.452Z,1.83
2024-03-09T13:52:01.159Z,2.30
2024-03-09T13:57:07.464Z,2.00
2024-03-09T14:02:14.718Z,3.65
2024-03-09T14:07:23.083Z,1.98
2024-03-09T14:12:28.683Z,2.20
2024-03-09T14:17:33.148Z,2.83
2024-03-09T14:22:37.062Z,7.00
2024-03-09T14:27:42.495Z,4.63
2024-03-09T14:32:48.326Z,3.95
2024-03-09T14:37:54.998Z,3.67
2024-03-09T14:43:03.791Z,3.05
2024-03-09T14:48:10.947Z,2.83
2024-03-09T14:53:16.108Z,4.88
2024-03-09T14:58:21.500Z,3.00
2024-03-09T15:03:33.694Z,4.85
2024-03-09T15:08:38.781Z,2.75
2024-03-09T15:14:02.486Z,3.45
2024-03-09T15:19:06.297Z,3.88
2024-03-09T15:24:12.563Z,2.80
2024-03-09T15:29:17.944Z,5.47
2024-03-09T15:34:21.955Z,2.58
2024-03-09T15:39:28.178Z,5.73
2024-03-09T15:44:33.809Z,6.43
2024-03-09T15:49:37.932Z,3.90
2024-03-09T15:54:43.539Z,5.10
2024-03-09T15:59:49.106Z,5.63
2024-03-09T16:04:53.821Z,5.80
2024-03-09T16:09:57.923Z,5.13
2024-03-09T16:15:05.474Z,4.33
2024-03-09T16:20:10.166Z,5.13
2024-03-09T16:25:14.399Z,3.90
2024-03-09T16:30:30.083Z,8.48
2024-03-09T16:35:34.351Z,5.57
2024-03-09T16:40:41.312Z,11.93
2024-03-09T16:45:46.770Z,7.50
2024-03-09T16:50:51.156Z,6.90
2024-03-09T16:55:55.260Z,9.00
2024-03-09T17:01:06.184Z,7.05
2024-03-09T17:06:11.318Z,7.95
2024-03-09T17:11:15.936Z,7.55
2024-03-09T17:21:25.932Z,6.57
2024-03-09T17:26:33.910Z,6.60
2024-03-09T17:31:39.740Z,14.57
2024-03-09T17:36:44.162Z,9.55
2024-03-09T17:41:48.148Z,10.57
2024-03-09T17:46:56.888Z,14.70
2024-03-09T17:52:00.720Z,14.63
2024-03-09T17:57:04.713Z,14.40
2024-03-09T18:02:10.543Z,8.87
2024-03-09T18:07:14.454Z,11.13
2024-03-09T18:12:19.028Z,9.50
2024-03-09T18:22:28.344Z,17.95
2024-03-09T18:27:32.807Z,10.13
2024-03-09T18:32:38.918Z,9.95
2024-03-09T18:37:45.172Z,16.60
2024-03-09T18:42:51.604Z,10.35
2024-03-09T18:47:59.008Z,12.23
2024-03-09T18:53:03.490Z,9.38
2024-03-09T18:58:10.136Z,11.05
2024-03-09T19:03:16.352Z,19.52
2024-03-09T19:08:23.340Z,8.25
2024-03-09T19:13:27.231Z,12.35
2024-03-09T19:18:50.264Z,10.57
2024-03-09T19:23:54.290Z,9.57
2024-03-09T19:28:58.230Z,15.48
2024-03-09T19:34:03.749Z,11.77
2024-03-09T19:39:10.639Z,17.05
2024-03-09T19:44:15.420Z,24.40
2024-03-09T19:49:21.384Z,17.55
2024-03-09T19:54:25.301Z,16.15
2024-03-09T19:59:29.288Z,13.07
2024-03-09T20:04:38.453Z,11.77
2024-03-09T20:09:43.074Z,16.45
2024-03-09T20:14:46.995Z,16.00
2024-03-09T20:19:54.173Z,13.03
2024-03-09T20:25:00.402Z,12.70
2024-03-09T20:30:04.310Z,16.40
2024-03-09T20:35:12.589Z,17.02
2024-03-09T20:40:19.462Z,12.77
2024-03-09T20:45:24.718Z,10.05
2024-03-09T20:50:31.152Z,14.40
2024-03-09T20:55:35.060Z,12.52
2024-03-09T21:00:39.442Z,19.03
2024-03-09T21:05:44.842Z,11.88
2024-03-09T21:10:51.510Z,12.10
2024-03-09T21:15:56.385Z,11.07
2024-03-09T21:26:06.649Z,20.50
2024-03-09T21:31:11.001Z,11.00
2024-03-09T21:36:16.322Z,18.02
2024-03-09T21:41:20.618Z,15.13
2024-03-09T21:46:24.965Z,15.65
2024-03-09T21:51:30.328Z,15.43
2024-03-09T21:56:34.979Z,10.60
2024-03-09T22:06:45.274Z,7.45
2024-03-09T22:11:49.817Z,10.85
2024-03-09T22:16:53.774Z,9.93
2024-03-09T22:21:58.943Z,8.53
2024-03-09T22:27:02.791Z,11.48
2024-03-09T22:32:07.063Z,9.17
2024-03-09T22:37:13.366Z,7.78
2024-03-09T22:42:17.599Z,13.60
2024-03-09T22:47:22.162Z,7.93
2024-03-09T22:52:27.625Z,9.02
2024-03-09T22:57:31.764Z,9.88
2024-03-09T23:02:35.654Z,9.70
2024-03-09T23:07:41.073Z,5.87
2024-03-09T23:12:45.625Z,6.80
2024-03-09T23:17:53.509Z,6.68
2024-03-09T23:23:00.504Z,14.45
2024-03-09T23:28:08.642Z,12.45
2024-03-09T23:33:12.521Z,15.63
2024-03-09T23:38:19.598Z,14.23
2024-03-09T23:43:23.572Z,10.32
2024-03-09T23:48:28.246Z,14.67
2024-03-09T23:53:35.388Z,8.38
2024-03-09T23:58:40.933Z,14.38
